Time;durP1;ratioP1;P1;durP2;ratioP2;P2;SDS_P1;SDS_P2;PMS_P1;PMS_P2;Temp;Humidity;BMP_temperature;BMP_pressure;BME280_temperature;BME280_humidity;BME280_pressure;Samples;Min_cycle;Max_cycle;Signal;HPM_P1;HPM_P2
2022/08/28 00:01:14;;;;;;;7.18;2.78;;;;;;;;;;5023039;28;20577;-73
2022/08/28 00:03:39;;;;;;;7.05;2.72;;;;;;;;;;5031996;28;20718;-73
2022/08/28 00:06:05;;;;;;;5.13;2.33;;;;;;;;;;5039475;28;20636;-73
2022/08/28 00:08:30;;;;;;;7.20;3.47;;;;;;;;;;5036420;28;20210;-74
2022/08/28 00:10:55;;;;;;;5.78;2.38;;;;;;;;;;5036299;28;20166;-74
2022/08/28 00:13:22;;;;;;;3.78;2.45;;;;;;;;;;5039141;28;20206;-74
2022/08/28 00:15:49;;;;;;;4.03;2.20;;;;;;;;;;5033080;28;20170;-74
2022/08/28 00:18:15;;;;;;;4.85;2.40;;;;;;;;;;5026218;28;20182;-74
2022/08/28 00:20:40;;;;;;;9.27;4.10;;;;;;;;;;5033681;28;20240;-74
2022/08/28 00:23:06;;;;;;;6.10;2.50;;;;;;;;;;5034430;28;20827;-74
2022/08/28 00:25:32;;;;;;;8.30;2.45;;;;;;;;;;5037364;28;20269;-74
2022/08/28 00:27:58;;;;;;;7.55;1.92;;;;;;;;;;5032521;28;20555;-74
2022/08/28 00:30:23;;;;;;;7.75;3.17;;;;;;;;;;5006512;28;20194;-74
2022/08/28 00:32:49;;;;;;;4.07;2.38;;;;;;;;;;5019336;28;20206;-74
2022/08/28 00:35:16;;;;;;;4.50;2.75;;;;;;;;;;5027204;28;20220;-71
2022/08/28 00:37:41;;;;;;;4.10;1.95;;;;;;;;;;5011220;28;20272;-74
2022/08/28 00:40:07;;;;;;;5.80;2.28;;;;;;;;;;5030899;28;20300;-73
2022/08/28 00:42:33;;;;;;;3.92;2.13;;;;;;;;;;5032784;28;20202;-74
2022/08/28 00:44:58;;;;;;;3.90;1.95;;;;;;;;;;5034969;28;20890;-74
2022/08/28 00:47:25;;;;;;;4.93;1.85;;;;;;;;;;5028807;28;20210;-74
2022/08/28 00:49:51;;;;;;;5.13;1.75;;;;;;;;;;5018584;28;20677;-74
2022/08/28 00:52:17;;;;;;;5.47;2.15;;;;;;;;;;5034245;28;20558;-74
2022/08/28 00:54:45;;;;;;;5.15;2.10;;;;;;;;;;5027237;28;20174;-74
2022/08/28 00:57:13;;;;;;;3.10;1.65;;;;;;;;;;5030508;28;20218;-72
2022/08/28 00:59:39;;;;;;;4.07;2.00;;;;;;;;;;5026617;28;20265;-74
2022/08/28 01:02:05;;;;;;;5.40;2.00;;;;;;;;;;5029650;28;20270;-74
2022/08/28 01:04:31;;;;;;;3.42;1.70;;;;;;;;;;5028480;28;20213;-74
2022/08/28 01:06:58;;;;;;;6.63;1.80;;;;;;;;;;5029368;28;20202;-73
2022/08/28 01:09:24;;;;;;;5.70;2.15;;;;;;;;;;5029951;28;20224;-72
2022/08/28 01:11:51;;;;;;;4.80;2.20;;;;;;;;;;5034738;28;20593;-74
2022/08/28 01:14:18;;;;;;;3.70;1.75;;;;;;;;;;5030152;28;20202;-74
2022/08/28 01:16:45;;;;;;;4.43;1.88;;;;;;;;;;5007223;28;20170;-74
2022/08/28 01:19:17;;;;;;;4.38;1.98;;;;;;;;;;5031408;28;20181;-74
2022/08/28 01:21:55;;;;;;;4.85;1.80;;;;;;;;;;5028191;28;20187;-73
2022/08/28 01:24:20;;;;;;;5.85;2.17;;;;;;;;;;5031555;28;20202;-73
2022/08/28 01:26:46;;;;;;;3.55;2.45;;;;;;;;;;5029427;28;20178;-73
2022/08/28 01:29:11;;;;;;;4.13;1.88;;;;;;;;;;5024468;28;20185;-74
2022/08/28 01:31:38;;;;;;;4.93;1.77;;;;;;;;;;5008628;28;20178;-73
2022/08/28 01:34:04;;;;;;;4.03;1.58;;;;;;;;;;5011596;28;20545;-74
2022/08/28 01:36:29;;;;;;;3.80;1.70;;;;;;;;;;5028263;28;20197;-74
2022/08/28 01:39:01;;;;;;;6.30;1.98;;;;;;;;;;5037933;28;20670;-74
2022/08/28 01:41:28;;;;;;;4.95;2.33;;;;;;;;;;5030678;28;20182;-74
2022/08/28 01:43:53;;;;;;;2.78;1.55;;;;;;;;;;5029747;28;20198;-74
2022/08/28 01:46:18;;;;;;;4.18;2.08;;;;;;;;;;5030035;28;20539;-74
2022/08/28 01:48:44;;;;;;;3.58;1.73;;;;;;;;;;5028045;28;20296;-73
2022/08/28 01:51:10;;;;;;;3.03;1.77;;;;;;;;;;5030360;28;20409;-74
2022/08/28 01:53:36;;;;;;;5.13;1.83;;;;;;;;;;5012752;28;20228;-73
2022/08/28 01:56:03;;;;;;;2.50;1.80;;;;;;;;;;5030493;28;20656;-74
2022/08/28 01:58:28;;;;;;;5.07;2.72;;;;;;;;;;5030936;28;20190;-74
2022/08/28 02:00:54;;;;;;;5.28;1.90;;;;;;;;;;5012560;28;20557;-74
2022/08/28 02:03:20;;;;;;;3.25;1.85;;;;;;;;;;5029248;28;20577;-73
2022/08/28 02:05:46;;;;;;;4.88;2.28;;;;;;;;;;5006542;28;20640;-74
2022/08/28 02:08:12;;;;;;;6.53;2.30;;;;;;;;;;5024595;28;20207;-74
2022/08/28 02:10:38;;;;;;;4.10;2.00;;;;;;;;;;5031137;28;20182;-73
2022/08/28 02:13:04;;;;;;;7.43;2.63;;;;;;;;;;5027258;28;20316;-74
2022/08/28 02:15:31;;;;;;;4.95;1.90;;;;;;;;;;5023702;28;20178;-74
2022/08/28 02:17:57;;;;;;;4.13;1.85;;;;;;;;;;5030649;28;20445;-73
2022/08/28 02:20:23;;;;;;;5.55;1.77;;;;;;;;;;5012364;28;20389;-73
2022/08/28 02:22:48;;;;;;;4.07;1.55;;;;;;;;;;5027118;28;20263;-73
2022/08/28 02:25:13;;;;;;;3.78;2.13;;;;;;;;;;5030019;28;20185;-73
2022/08/28 02:27:39;;;;;;;5.13;1.75;;;;;;;;;;5029876;28;20511;-74
2022/08/28 02:30:05;;;;;;;6.47;2.00;;;;;;;;;;5029707;28;20292;-73
2022/08/28 02:32:31;;;;;;;3.30;1.83;;;;;;;;;;5010587;28;20679;-72
2022/08/28 02:34:56;;;;;;;5.03;2.35;;;;;;;;;;5028847;28;20174;-72
2022/08/28 02:37:23;;;;;;;4.38;2.20;;;;;;;;;;5030751;28;20178;-75
2022/08/28 02:39:48;;;;;;;7.10;1.92;;;;;;;;;;5026030;28;20186;-71
2022/08/28 02:42:14;;;;;;;3.50;1.88;;;;;;;;;;5003730;28;20183;-74
2022/08/28 02:44:39;;;;;;;5.35;2.10;;;;;;;;;;5026974;28;20259;-72
2022/08/28 02:47:05;;;;;;;3.42;2.13;;;;;;;;;;5028198;28;20234;-72
2022/08/28 02:49:30;;;;;;;3.30;1.90;;;;;;;;;;5025805;28;20189;-72
2022/08/28 02:51:56;;;;;;;4.80;2.30;;;;;;;;;;5008491;28;20170;-72
2022/08/28 02:54:21;;;;;;;4.35;2.15;;;;;;;;;;5028922;28;20194;-74
2022/08/28 02:56:46;;;;;;;6.90;2.35;;;;;;;;;;5030227;28;20644;-74
2022/08/28 02:59:12;;;;;;;4.57;2.00;;;;;;;;;;5030162;28;20710;-72
2022/08/28 03:01:37;;;;;;;3.05;2.03;;;;;;;;;;5009860;28;20189;-73
2022/08/28 03:04:04;;;;;;;4.03;2.20;;;;;;;;;;5010861;28;20640;-73
2022/08/28 03:06:29;;;;;;;3.67;2.10;;;;;;;;;;5028871;28;20265;-72
2022/08/28 03:08:54;;;;;;;6.68;2.20;;;;;;;;;;5029082;28;20648;-72
2022/08/28 03:11:19;;;;;;;6.20;2.17;;;;;;;;;;5019337;28;20173;-73
2022/08/28 03:13:44;;;;;;;7.95;1.90;;;;;;;;;;5028657;28;20258;-72
2022/08/28 03:16:10;;;;;;;6.13;2.15;;;;;;;;;;5030788;28;20687;-73
2022/08/28 03:18:35;;;;;;;5.35;2.35;;;;;;;;;;5034512;28;20589;-73
2022/08/28 03:21:00;;;;;;;6.85;2.17;;;;;;;;;;5016013;28;20315;-72
2022/08/28 03:23:26;;;;;;;6.47;2.75;;;;;;;;;;5032666;28;20277;-72
2022/08/28 03:25:59;;;;;;;5.03;2.88;;;;;;;;;;5020014;28;20188;-72
2022/08/28 03:28:25;;;;;;;5.50;2.28;;;;;;;;;;5035562;28;20213;-72
2022/08/28 03:30:50;;;;;;;5.53;1.95;;;;;;;;;;5032844;28;20561;-72
2022/08/28 03:33:16;;;;;;;4.13;2.00;;;;;;;;;;5015273;28;20194;-72
2022/08/28 03:35:41;;;;;;;9.13;3.67;;;;;;;;;;5013356;28;20217;-72
2022/08/28 03:38:06;;;;;;;9.05;2.47;;;;;;;;;;5032438;28;20261;-72
2022/08/28 03:40:31;;;;;;;6.68;2.20;;;;;;;;;;5031157;28;20210;-73
2022/08/28 03:42:57;;;;;;;3.78;2.15;;;;;;;;;;5014857;28;20206;-72
2022/08/28 03:45:22;;;;;;;8.23;2.40;;;;;;;;;;5031671;28;20193;-72
2022/08/28 03:47:48;;;;;;;5.22;2.38;;;;;;;;;;5032056;28;20206;-72
2022/08/28 03:50:13;;;;;;;6.35;2.28;;;;;;;;;;5032497;28;20178;-73
2022/08/28 03:52:39;;;;;;;5.20;2.30;;;;;;;;;;5032445;28;20233;-72
2022/08/28 03:55:07;;;;;;;7.43;3.22;;;;;;;;;;5032736;28;20255;-73
2022/08/28 03:57:32;;;;;;;3.42;2.65;;;;;;;;;;5034048;28;20182;-73
2022/08/28 03:59:58;;;;;;;3.40;2.28;;;;;;;;;;5033685;28;21356;-72
2022/08/28 04:02:23;;;;;;;4.43;2.70;;;;;;;;;;5032531;28;20301;-73
2022/08/28 04:04:49;;;;;;;5.53;2.83;;;;;;;;;;5031047;28;20193;-72
2022/08/28 04:07:14;;;;;;;7.82;2.15;;;;;;;;;;5013163;28;20295;-72
2022/08/28 04:09:39;;;;;;;7.68;2.60;;;;;;;;;;5015399;28;20186;-73
2022/08/28 04:12:05;;;;;;;5.30;2.83;;;;;;;;;;5017193;28;20170;-72
2022/08/28 04:14:30;;;;;;;4.63;2.45;;;;;;;;;;5039891;28;20186;-72
2022/08/28 04:16:56;;;;;;;7.43;2.47;;;;;;;;;;5011569;28;20193;-73
2022/08/28 04:19:21;;;;;;;4.25;2.83;;;;;;;;;;5033926;28;20312;-73
2022/08/28 04:21:46;;;;;;;8.07;2.78;;;;;;;;;;5018349;28;20213;-72
2022/08/28 04:24:12;;;;;;;3.95;2.70;;;;;;;;;;5029906;28;20202;-72
2022/08/28 04:26:38;;;;;;;4.35;2.70;;;;;;;;;;5029800;28;20213;-73
2022/08/28 04:29:03;;;;;;;6.03;3.07;;;;;;;;;;5032235;28;20201;-71
2022/08/28 04:31:28;;;;;;;5.13;2.80;;;;;;;;;;5031917;28;20182;-73
2022/08/28 04:33:54;;;;;;;4.13;2.85;;;;;;;;;;5030542;28;20229;-72
2022/08/28 04:36:20;;;;;;;3.95;2.42;;;;;;;;;;5012700;28;20265;-72
2022/08/28 04:38:45;;;;;;;6.68;2.45;;;;;;;;;;5030514;28;20178;-73
2022/08/28 04:41:12;;;;;;;4.67;2.53;;;;;;;;;;5035729;28;20185;-72
2022/08/28 04:43:37;;;;;;;3.40;2.50;;;;;;;;;;5031773;28;20210;-72
2022/08/28 04:46:03;;;;;;;4.82;2.25;;;;;;;;;;5034818;28;20253;-72
2022/08/28 04:48:28;;;;;;;6.60;2.63;;;;;;;;;;5014259;28;20206;-72
2022/08/28 04:50:54;;;;;;;4.70;2.30;;;;;;;;;;5030859;28;20320;-72
2022/08/28 04:53:19;;;;;;;6.50;2.50;;;;;;;;;;5033125;28;20186;-72
2022/08/28 04:55:46;;;;;;;6.45;2.90;;;;;;;;;;5035124;28;20193;-73
2022/08/28 04:58:11;;;;;;;4.85;2.50;;;;;;;;;;5033500;28;20583;-72
2022/08/28 05:00:40;;;;;;;4.03;2.05;;;;;;;;;;5028970;28;20225;-72
2022/08/28 05:03:05;;;;;;;4.50;2.60;;;;;;;;;;5029025;28;20624;-74
2022/08/28 05:05:30;;;;;;;4.15;2.30;;;;;;;;;;5034885;28;20182;-74
2022/08/28 05:07:56;;;;;;;4.40;2.50;;;;;;;;;;5011701;28;20225;-75
2022/08/28 05:10:21;;;;;;;2.78;2.30;;;;;;;;;;5031616;28;20304;-74
2022/08/28 05:12:46;;;;;;;5.55;3.35;;;;;;;;;;5011485;28;20195;-75
2022/08/28 05:15:12;;;;;;;4.07;3.15;;;;;;;;;;5030902;28;20229;-74
2022/08/28 05:17:38;;;;;;;4.03;2.13;;;;;;;;;;5030822;28;20190;-74
2022/08/28 05:20:04;;;;;;;7.63;3.05;;;;;;;;;;5029886;28;20186;-74
2022/08/28 05:22:31;;;;;;;7.32;2.97;;;;;;;;;;5020370;28;20229;-75
2022/08/28 05:24:56;;;;;;;7.15;2.63;;;;;;;;;;5030245;28;20241;-74
2022/08/28 05:27:23;;;;;;;4.30;2.60;;;;;;;;;;5030875;28;20213;-74
2022/08/28 05:29:48;;;;;;;4.43;2.50;;;;;;;;;;5031532;28;20190;-74
2022/08/28 05:32:13;;;;;;;4.68;2.50;;;;;;;;;;5028385;28;21441;-75
2022/08/28 05:34:39;;;;;;;4.65;2.28;;;;;;;;;;5013320;28;20186;-74
2022/08/28 05:37:05;;;;;;;4.20;2.17;;;;;;;;;;5029259;28;20218;-75
2022/08/28 05:39:30;;;;;;;5.93;2.55;;;;;;;;;;5029811;28;20189;-74
2022/08/28 05:41:55;;;;;;;5.47;2.80;;;;;;;;;;5028583;28;20181;-74
2022/08/28 05:44:21;;;;;;;5.93;2.50;;;;;;;;;;5029346;28;20582;-74
2022/08/28 05:46:47;;;;;;;8.93;4.68;;;;;;;;;;5027548;28;20259;-74
2022/08/28 05:49:13;;;;;;;7.50;3.85;;;;;;;;;;5031281;28;20253;-75
2022/08/28 05:51:39;;;;;;;6.72;2.85;;;;;;;;;;5010862;28;20178;-74
2022/08/28 05:54:05;;;;;;;5.63;3.40;;;;;;;;;;5031214;28;20751;-75
2022/08/28 05:56:33;;;;;;;5.18;2.45;;;;;;;;;;5028598;28;20334;-74
2022/08/28 05:58:59;;;;;;;5.93;2.33;;;;;;;;;;5031019;28;20651;-74
2022/08/28 06:01:28;;;;;;;5.18;2.40;;;;;;;;;;5002330;28;20620;-74
2022/08/28 06:03:56;;;;;;;3.63;2.35;;;;;;;;;;5027485;28;20230;-74
2022/08/28 06:06:23;;;;;;;4.18;2.10;;;;;;;;;;5029488;28;20571;-74
2022/08/28 06:08:49;;;;;;;5.47;2.80;;;;;;;;;;5029106;28;20213;-74
2022/08/28 06:11:14;;;;;;;8.70;3.30;;;;;;;;;;5027695;28;20601;-75
2022/08/28 06:13:39;;;;;;;7.25;2.35;;;;;;;;;;5029818;28;20281;-74
2022/08/28 06:16:07;;;;;;;4.65;2.20;;;;;;;;;;5029216;28;20651;-74
2022/08/28 06:18:33;;;;;;;3.42;1.98;;;;;;;;;;5028998;28;20190;-74
2022/08/28 06:21:01;;;;;;;7.22;2.75;;;;;;;;;;5029861;28;20938;-74
2022/08/28 06:23:26;;;;;;;4.00;1.85;;;;;;;;;;5017124;28;20256;-74
2022/08/28 06:25:51;;;;;;;5.35;1.92;;;;;;;;;;5029171;28;20569;-74
2022/08/28 06:28:18;;;;;;;4.68;1.50;;;;;;;;;;5028801;28;20233;-74
2022/08/28 06:30:44;;;;;;;5.15;2.00;;;;;;;;;;5032644;28;20171;-74
2022/08/28 06:33:10;;;;;;;3.42;2.00;;;;;;;;;;5033300;28;20191;-75
2022/08/28 06:35:40;;;;;;;3.30;1.60;;;;;;;;;;5011137;28;20660;-74
2022/08/28 06:38:05;;;;;;;4.32;2.03;;;;;;;;;;5028062;28;20186;-74
2022/08/28 06:40:30;;;;;;;5.82;2.72;;;;;;;;;;5010203;28;20607;-74
2022/08/28 06:42:56;;;;;;;2.83;1.40;;;;;;;;;;5029447;28;20198;-74
2022/08/28 06:45:21;;;;;;;4.60;2.15;;;;;;;;;;5029970;28;20222;-75
2022/08/28 06:47:46;;;;;;;3.63;1.35;;;;;;;;;;5028161;28;20994;-75
2022/08/28 06:50:12;;;;;;;4.40;1.20;;;;;;;;;;5028887;28;20182;-74
2022/08/28 06:52:37;;;;;;;3.83;1.35;;;;;;;;;;5032279;28;20194;-74
2022/08/28 06:55:02;;;;;;;3.78;1.05;;;;;;;;;;5033877;28;20620;-74
2022/08/28 06:57:27;;;;;;;7.35;1.63;;;;;;;;;;5032230;28;20212;-75
2022/08/28 06:59:56;;;;;;;2.58;1.45;;;;;;;;;;5035272;28;20189;-74
2022/08/28 07:02:21;;;;;;;2.80;1.40;;;;;;;;;;5022081;28;20201;-76
2022/08/28 07:04:50;;;;;;;3.87;1.40;;;;;;;;;;5031509;28;20210;-75
2022/08/28 07:07:15;;;;;;;4.07;1.48;;;;;;;;;;5031160;28;20830;-75
2022/08/28 07:09:41;;;;;;;2.35;1.05;;;;;;;;;;5033096;28;20175;-74
2022/08/28 07:12:07;;;;;;;4.38;1.13;;;;;;;;;;5030908;28;20591;-74
2022/08/28 07:14:32;;;;;;;1.67;1.05;;;;;;;;;;5032218;28;20187;-74
2022/08/28 07:16:58;;;;;;;3.23;1.10;;;;;;;;;;5032409;28;20859;-73
2022/08/28 07:19:23;;;;;;;3.55;1.05;;;;;;;;;;5015587;28;20936;-74
2022/08/28 07:21:48;;;;;;;3.97;1.30;;;;;;;;;;5031952;28;20179;-74
2022/08/28 07:24:14;;;;;;;2.00;1.15;;;;;;;;;;5030651;28;20470;-74
2022/08/28 07:26:40;;;;;;;3.45;1.00;;;;;;;;;;5032480;28;20178;-73
2022/08/28 07:29:07;;;;;;;2.88;1.10;;;;;;;;;;5032126;28;20213;-74
2022/08/28 07:31:32;;;;;;;2.92;1.33;;;;;;;;;;5032719;28;20213;-74
2022/08/28 07:33:57;;;;;;;3.45;1.45;;;;;;;;;;5033852;28;20210;-73
2022/08/28 07:36:23;;;;;;;1.77;1.10;;;;;;;;;;5032933;28;20186;-74
2022/08/28 07:38:49;;;;;;;3.55;1.38;;;;;;;;;;5033647;28;20482;-73
2022/08/28 07:41:19;;;;;;;3.05;0.90;;;;;;;;;;5032109;28;20676;-73
2022/08/28 07:46:28;;;;;;;2.63;1.05;;;;;;;;;;5031460;28;20566;-74
2022/08/28 07:48:53;;;;;;;3.67;1.10;;;;;;;;;;5021122;28;20206;-74
2022/08/28 07:51:19;;;;;;;6.32;1.40;;;;;;;;;;5032015;28;20215;-74
2022/08/28 07:53:44;;;;;;;2.22;1.10;;;;;;;;;;5030669;28;20197;-74
2022/08/28 07:56:10;;;;;;;2.35;0.80;;;;;;;;;;5034102;28;20352;-74
2022/08/28 07:58:35;;;;;;;1.80;0.93;;;;;;;;;;5014356;28;20193;-74
2022/08/28 08:01:00;;;;;;;5.75;1.95;;;;;;;;;;5032318;28;20261;-74
2022/08/28 08:03:27;;;;;;;2.97;1.30;;;;;;;;;;5033052;28;20226;-73
2022/08/28 08:05:54;;;;;;;2.80;1.10;;;;;;;;;;5031865;28;20186;-73
2022/08/28 08:08:20;;;;;;;4.75;1.42;;;;;;;;;;5031698;28;20230;-72
2022/08/28 08:10:53;;;;;;;3.80;1.15;;;;;;;;;;5025156;28;20178;-72
2022/08/28 08:13:19;;;;;;;2.75;1.60;;;;;;;;;;5032134;28;20280;-74
2022/08/28 08:15:44;;;;;;;4.13;1.30;;;;;;;;;;5028981;28;20262;-73
2022/08/28 08:18:09;;;;;;;3.20;1.10;;;;;;;;;;5029989;28;20435;-73
2022/08/28 08:20:34;;;;;;;4.37;1.47;;;;;;;;;;5029614;28;20459;-73
2022/08/28 08:22:59;;;;;;;5.20;1.93;;;;;;;;;;5029719;28;20517;-73
2022/08/28 08:25:24;;;;;;;2.83;0.90;;;;;;;;;;5018883;28;20436;-74
2022/08/28 08:27:50;;;;;;;2.20;0.93;;;;;;;;;;5031651;28;20452;-73
2022/08/28 08:30:15;;;;;;;2.72;1.08;;;;;;;;;;5011295;28;20183;-73
2022/08/28 08:32:40;;;;;;;5.03;1.30;;;;;;;;;;5028276;28;20210;-73
2022/08/28 08:35:05;;;;;;;1.80;0.80;;;;;;;;;;5027730;28;20178;-74
2022/08/28 08:37:31;;;;;;;3.00;1.75;;;;;;;;;;5027131;28;20466;-74
2022/08/28 08:39:56;;;;;;;1.85;0.80;;;;;;;;;;5031325;28;20193;-72
2022/08/28 08:42:23;;;;;;;2.38;0.93;;;;;;;;;;5030034;28;20210;-72
2022/08/28 08:44:50;;;;;;;2.22;1.00;;;;;;;;;;5012301;28;20178;-73
2022/08/28 08:47:37;;;;;;;3.15;0.90;;;;;;;;;;5029145;28;20865;-74
2022/08/28 08:50:04;;;;;;;3.45;1.25;;;;;;;;;;5028531;28;20265;-73
2022/08/28 08:52:34;;;;;;;2.75;1.00;;;;;;;;;;5029549;28;20234;-73
2022/08/28 08:55:18;;;;;;;2.28;0.80;;;;;;;;;;5009871;28;20664;-74
2022/08/28 08:57:44;;;;;;;3.50;0.90;;;;;;;;;;5031119;28;20216;-73
2022/08/28 09:00:10;;;;;;;2.65;1.10;;;;;;;;;;5029789;28;20218;-73
2022/08/28 09:02:56;;;;;;;1.35;0.85;;;;;;;;;;5008794;28;20580;-73
2022/08/28 09:05:25;;;;;;;1.35;0.95;;;;;;;;;;5031174;28;20874;-74
2022/08/28 09:08:01;;;;;;;2.33;0.90;;;;;;;;;;5031858;28;20198;-73
2022/08/28 09:10:33;;;;;;;3.83;1.27;;;;;;;;;;5028552;28;20208;-74
2022/08/28 09:13:09;;;;;;;3.25;1.20;;;;;;;;;;5028565;28;20317;-73
2022/08/28 09:15:37;;;;;;;4.43;1.25;;;;;;;;;;5019733;28;20169;-75
2022/08/28 09:18:11;;;;;;;2.60;0.82;;;;;;;;;;5028152;28;20551;-73
2022/08/28 09:20:37;;;;;;;2.80;1.00;;;;;;;;;;5026401;28;20660;-75
2022/08/28 09:23:02;;;;;;;2.55;0.95;;;;;;;;;;5035859;28;20210;-73
2022/08/28 09:25:43;;;;;;;1.38;0.80;;;;;;;;;;5024030;28;20251;-73
2022/08/28 09:28:09;;;;;;;3.38;0.80;;;;;;;;;;5028882;28;20202;-72
2022/08/28 09:30:35;;;;;;;2.13;0.90;;;;;;;;;;5026827;28;20433;-73
2022/08/28 09:33:00;;;;;;;1.42;0.80;;;;;;;;;;5037950;28;20290;-72
2022/08/28 09:35:27;;;;;;;2.20;0.90;;;;;;;;;;5031276;28;20170;-72
2022/08/28 09:37:53;;;;;;;1.88;0.75;;;;;;;;;;5034318;28;20550;-72
2022/08/28 09:40:25;;;;;;;0.82;0.68;;;;;;;;;;5031609;28;20178;-72
2022/08/28 09:45:44;;;;;;;2.13;0.80;;;;;;;;;;5026474;28;20570;-73
2022/08/28 09:48:23;;;;;;;3.80;0.80;;;;;;;;;;5028756;28;20202;-73
2022/08/28 09:50:57;;;;;;;2.58;0.65;;;;;;;;;;5024242;28;20179;-73
2022/08/28 09:53:23;;;;;;;0.90;0.65;;;;;;;;;;5028907;28;20291;-73
2022/08/28 09:55:48;;;;;;;3.17;0.95;;;;;;;;;;5036141;28;20257;-72
2022/08/28 09:58:13;;;;;;;2.87;0.90;;;;;;;;;;5025659;28;21301;-73
2022/08/28 10:00:42;;;;;;;3.10;0.93;;;;;;;;;;5010978;28;20236;-72
2022/08/28 10:03:21;;;;;;;2.47;0.85;;;;;;;;;;5030206;28;20455;-72
2022/08/28 10:06:00;;;;;;;2.63;0.90;;;;;;;;;;5027215;28;20659;-72
2022/08/28 10:08:39;;;;;;;1.92;0.90;;;;;;;;;;5027561;28;20213;-73
2022/08/28 10:11:13;;;;;;;1.85;1.05;;;;;;;;;;5023609;28;20170;-73
2022/08/28 10:13:43;;;;;;;1.60;0.82;;;;;;;;;;5028176;28;20197;-73
2022/08/28 10:16:17;;;;;;;1.83;0.80;;;;;;;;;;5029278;28;20250;-75
2022/08/28 10:18:52;;;;;;;4.25;0.90;;;;;;;;;;5024539;28;20265;-73
2022/08/28 10:21:17;;;;;;;1.30;0.80;;;;;;;;;;5024476;28;20910;-73
2022/08/28 10:23:48;;;;;;;1.67;0.75;;;;;;;;;;5014395;28;20576;-73
2022/08/28 10:26:32;;;;;;;2.28;0.90;;;;;;;;;;5028961;28;20185;-73
2022/08/28 10:28:57;;;;;;;0.65;0.52;;;;;;;;;;5033890;28;20201;-73
2022/08/28 10:31:33;;;;;;;1.70;0.70;;;;;;;;;;5031267;28;20285;-74
2022/08/28 10:34:07;;;;;;;2.67;0.95;;;;;;;;;;5032702;28;20256;-73
2022/08/28 10:36:34;;;;;;;3.00;0.90;;;;;;;;;;5017044;28;20188;-73
2022/08/28 10:39:07;;;;;;;3.05;0.93;;;;;;;;;;5032017;28;20182;-74
2022/08/28 10:41:38;;;;;;;2.47;0.80;;;;;;;;;;5030221;28;20205;-73
2022/08/28 10:44:04;;;;;;;3.50;0.80;;;;;;;;;;5032704;28;20197;-73
2022/08/28 10:46:37;;;;;;;2.58;1.20;;;;;;;;;;5031173;28;20197;-73
2022/08/28 10:49:07;;;;;;;2.00;0.73;;;;;;;;;;5031534;28;20202;-73
2022/08/28 10:51:42;;;;;;;2.13;0.82;;;;;;;;;;5032207;28;20265;-73
2022/08/28 10:54:15;;;;;;;2.97;1.00;;;;;;;;;;5032776;28;20194;-73
2022/08/28 10:56:48;;;;;;;3.72;0.70;;;;;;;;;;5031239;28;20185;-73
2022/08/28 10:59:13;;;;;;;2.88;1.42;;;;;;;;;;5026601;28;20175;-73
2022/08/28 11:01:39;;;;;;;2.00;0.90;;;;;;;;;;5032864;28;20185;-73
2022/08/28 11:04:08;;;;;;;1.75;0.70;;;;;;;;;;5014893;28;20214;-73
2022/08/28 11:06:33;;;;;;;1.88;0.50;;;;;;;;;;5029306;28;20195;-72
2022/08/28 11:09:23;;;;;;;2.35;1.05;;;;;;;;;;5033109;28;20209;-73
2022/08/28 11:11:47;;;;;;;1.75;0.75;;;;;;;;;;5033562;28;20261;-72
2022/08/28 11:14:33;;;;;;;1.95;0.82;;;;;;;;;;5034796;28;20205;-72
2022/08/28 11:17:03;;;;;;;1.63;0.68;;;;;;;;;;5010781;28;20179;-73
2022/08/28 11:19:32;;;;;;;1.38;0.80;;;;;;;;;;5033867;28;20179;-73
2022/08/28 11:22:03;;;;;;;1.75;0.95;;;;;;;;;;5013567;28;20253;-73
2022/08/28 11:24:41;;;;;;;2.30;1.00;;;;;;;;;;5031827;28;20182;-72
2022/08/28 11:27:15;;;;;;;1.67;0.60;;;;;;;;;;5030944;28;20655;-72
2022/08/28 11:30:00;;;;;;;2.72;0.82;;;;;;;;;;5012735;28;20174;-74
2022/08/28 11:32:31;;;;;;;2.08;0.70;;;;;;;;;;5031251;28;20256;-73
2022/08/28 11:34:57;;;;;;;1.20;0.60;;;;;;;;;;5028539;28;21623;-74
2022/08/28 11:37:37;;;;;;;2.17;0.80;;;;;;;;;;5030022;28;20194;-73
2022/08/28 11:40:12;;;;;;;3.70;0.77;;;;;;;;;;5030027;28;20178;-73
2022/08/28 11:42:37;;;;;;;1.35;0.68;;;;;;;;;;5030103;28;20599;-73
2022/08/28 11:45:03;;;;;;;1.57;0.70;;;;;;;;;;5030034;28;20175;-73
2022/08/28 11:47:36;;;;;;;2.08;1.15;;;;;;;;;;5028649;28;20827;-73
2022/08/28 11:50:03;;;;;;;2.08;0.88;;;;;;;;;;5028226;28;20179;-73
2022/08/28 11:52:40;;;;;;;3.10;0.90;;;;;;;;;;5027606;28;20202;-73
2022/08/28 11:55:06;;;;;;;1.80;0.90;;;;;;;;;;5029263;28;20185;-73
2022/08/28 11:57:49;;;;;;;3.85;0.70;;;;;;;;;;5027875;28;20182;-74
2022/08/28 12:00:22;;;;;;;1.20;0.68;;;;;;;;;;5026761;28;20208;-73
2022/08/28 12:02:52;;;;;;;1.25;0.60;;;;;;;;;;5033085;28;20272;-74
2022/08/28 12:05:30;;;;;;;2.10;1.10;;;;;;;;;;5030248;28;20890;-73
2022/08/28 12:07:55;;;;;;;1.95;0.68;;;;;;;;;;5031147;28;20212;-73
2022/08/28 12:10:25;;;;;;;2.30;1.08;;;;;;;;;;5030350;28;20182;-73
2022/08/28 12:12:52;;;;;;;2.13;0.70;;;;;;;;;;5013377;28;20726;-72
2022/08/28 12:15:26;;;;;;;2.80;1.23;;;;;;;;;;5012783;28;20258;-74
2022/08/28 12:18:15;;;;;;;2.78;1.40;;;;;;;;;;5031642;28;20240;-72
2022/08/28 12:20:49;;;;;;;2.03;0.88;;;;;;;;;;5000797;28;20562;-73
2022/08/28 12:23:30;;;;;;;1.05;0.65;;;;;;;;;;5027417;28;20200;-72
2022/08/28 12:26:19;;;;;;;1.83;0.85;;;;;;;;;;5008272;28;20189;-73
2022/08/28 12:28:46;;;;;;;1.45;0.80;;;;;;;;;;5021485;28;20608;-73
2022/08/28 12:31:12;;;;;;;1.48;0.70;;;;;;;;;;5030253;28;20200;-73
2022/08/28 12:33:51;;;;;;;1.75;0.60;;;;;;;;;;5030559;28;20297;-72
2022/08/28 12:36:17;;;;;;;1.50;0.75;;;;;;;;;;5028584;28;20193;-73
2022/08/28 12:38:47;;;;;;;1.77;0.77;;;;;;;;;;5032191;28;20774;-73
2022/08/28 12:41:13;;;;;;;1.75;0.63;;;;;;;;;;5028288;28;20191;-73
2022/08/28 12:43:40;;;;;;;2.70;0.80;;;;;;;;;;5031218;28;20544;-73
2022/08/28 12:46:10;;;;;;;2.00;0.65;;;;;;;;;;5027028;28;20273;-73
2022/08/28 12:48:49;;;;;;;1.10;0.60;;;;;;;;;;5027818;28;20194;-73
2022/08/28 12:51:34;;;;;;;2.63;0.80;;;;;;;;;;5028582;28;20171;-73
2022/08/28 12:54:02;;;;;;;1.63;1.00;;;;;;;;;;5026843;28;20213;-73
2022/08/28 12:56:32;;;;;;;1.70;0.75;;;;;;;;;;5024457;28;20178;-73
2022/08/28 12:59:17;;;;;;;1.38;0.60;;;;;;;;;;5030323;28;20174;-73
2022/08/28 13:01:43;;;;;;;2.63;0.85;;;;;;;;;;5027362;28;20198;-73
2022/08/28 13:04:26;;;;;;;2.67;0.65;;;;;;;;;;5030550;28;20216;-72
2022/08/28 13:06:56;;;;;;;1.52;0.90;;;;;;;;;;5028717;28;20174;-73
2022/08/28 13:09:22;;;;;;;2.30;0.80;;;;;;;;;;5031314;28;20328;-73
2022/08/28 13:11:49;;;;;;;1.63;0.73;;;;;;;;;;5011615;28;20177;-72
2022/08/28 13:14:32;;;;;;;4.65;0.88;;;;;;;;;;5032739;28;20204;-73
2022/08/28 13:16:58;;;;;;;1.77;0.80;;;;;;;;;;5027266;28;20663;-73
2022/08/28 13:19:33;;;;;;;1.07;0.80;;;;;;;;;;5030077;28;20178;-73
2022/08/28 13:22:03;;;;;;;0.73;0.50;;;;;;;;;;5023880;28;20913;-73
2022/08/28 13:24:42;;;;;;;1.85;0.60;;;;;;;;;;5027369;28;20727;-73
2022/08/28 13:27:11;;;;;;;1.45;0.70;;;;;;;;;;5028839;28;20174;-73
2022/08/28 13:29:36;;;;;;;1.73;1.00;;;;;;;;;;5026297;28;20183;-73
2022/08/28 13:32:03;;;;;;;1.38;0.75;;;;;;;;;;5009310;28;20174;-73
2022/08/28 13:34:36;;;;;;;0.70;0.50;;;;;;;;;;5029167;28;20189;-73
2022/08/28 13:37:03;;;;;;;2.47;1.35;;;;;;;;;;5029573;28;20672;-73
2022/08/28 13:39:30;;;;;;;0.75;0.50;;;;;;;;;;5028303;28;20179;-73
2022/08/28 13:41:57;;;;;;;1.80;0.90;;;;;;;;;;5028269;28;20170;-73
2022/08/28 13:44:25;;;;;;;1.20;0.95;;;;;;;;;;5028863;28;20569;-74
2022/08/28 13:46:50;;;;;;;1.65;0.88;;;;;;;;;;5029370;28;20301;-73
2022/08/28 13:49:15;;;;;;;2.07;0.70;;;;;;;;;;5029278;28;20293;-72
2022/08/28 13:51:41;;;;;;;0.93;0.60;;;;;;;;;;5028975;28;20913;-73
2022/08/28 13:54:06;;;;;;;1.92;0.70;;;;;;;;;;5029091;28;20249;-73
2022/08/28 13:56:31;;;;;;;0.70;0.47;;;;;;;;;;5026721;28;20174;-73
2022/08/28 13:58:56;;;;;;;1.47;0.97;;;;;;;;;;5027008;28;20194;-73
2022/08/28 14:03:34;;;;;;;2.07;1.60;;;;;;;;;;5027184;28;20202;-73
2022/08/28 14:04:08;;;;;;;1.05;0.73;;;;;;;;;;5024314;28;20462;-72
2022/08/28 14:06:33;;;;;;;0.80;0.65;;;;;;;;;;4999772;28;20186;-73
2022/08/28 14:08:58;;;;;;;2.25;1.00;;;;;;;;;;5028744;28;20190;-72
2022/08/28 14:11:25;;;;;;;2.57;1.70;;;;;;;;;;5027953;28;20174;-72
2022/08/28 14:13:50;;;;;;;1.58;1.00;;;;;;;;;;5022993;28;20281;-72
2022/08/28 14:16:15;;;;;;;1.95;1.08;;;;;;;;;;5029207;28;20254;-72
2022/08/28 14:18:40;;;;;;;1.47;0.80;;;;;;;;;;5027644;28;20193;-73
2022/08/28 14:21:06;;;;;;;2.00;0.80;;;;;;;;;;5022878;28;20780;-72
2022/08/28 14:23:32;;;;;;;1.30;0.82;;;;;;;;;;5025864;28;20210;-73
2022/08/28 14:25:57;;;;;;;2.25;0.80;;;;;;;;;;5028409;28;20228;-73
2022/08/28 14:28:22;;;;;;;1.48;0.70;;;;;;;;;;5026023;28;20213;-72
2022/08/28 14:30:49;;;;;;;1.23;0.60;;;;;;;;;;5024352;28;20201;-73
2022/08/28 14:33:17;;;;;;;1.92;0.63;;;;;;;;;;5028056;28;20206;-74
2022/08/28 14:35:42;;;;;;;2.10;0.80;;;;;;;;;;5010616;28;20171;-73
2022/08/28 14:38:08;;;;;;;1.10;0.73;;;;;;;;;;5017816;28;20171;-74
2022/08/28 14:40:34;;;;;;;1.08;0.55;;;;;;;;;;5012060;28;20618;-74
2022/08/28 14:42:59;;;;;;;1.05;0.75;;;;;;;;;;5026228;28;20194;-73
2022/08/28 14:45:24;;;;;;;0.90;0.70;;;;;;;;;;5025525;28;20831;-74
2022/08/28 14:47:50;;;;;;;0.80;0.60;;;;;;;;;;5027325;28;20252;-74
2022/08/28 14:50:15;;;;;;;1.53;0.90;;;;;;;;;;5028735;28;20419;-74
2022/08/28 14:52:40;;;;;;;1.43;0.80;;;;;;;;;;5025886;28;20483;-74